Time;durP1;ratioP1;P1;durP2;ratioP2;P2;SDS_P1;SDS_P2;PMS_P1;PMS_P2;Temp;Humidity;BMP_temperature;BMP_pressure;BME280_temperature;BME280_humidity;BME280_pressure;Samples;Min_cycle;Max_cycle;Signal;HPM_P1;HPM_P2
2022/10/21 00:00:29;;;;;;;15.48;8.13;;;;;;;;;;4962932;28;20052;-69
2022/10/21 00:02:54;;;;;;;15.05;8.93;;;;;;;;;;4980710;28;20462;-70
2022/10/21 00:05:20;;;;;;;15.50;8.02;;;;;;;;;;4980906;28;20050;-69
2022/10/21 00:07:45;;;;;;;12.50;7.80;;;;;;;;;;4981456;28;20041;-69
2022/10/21 00:10:11;;;;;;;12.50;7.93;;;;;;;;;;4981079;28;20460;-69
2022/10/21 00:12:37;;;;;;;11.10;8.20;;;;;;;;;;4980419;28;20046;-69
2022/10/21 00:15:05;;;;;;;10.60;8.70;;;;;;;;;;4980325;28;20109;-69
2022/10/21 00:17:33;;;;;;;12.85;7.80;;;;;;;;;;4981078;28;20404;-69
2022/10/21 00:19:58;;;;;;;14.75;7.90;;;;;;;;;;4980979;28;20077;-69
2022/10/21 00:22:23;;;;;;;13.23;7.55;;;;;;;;;;4980026;28;20462;-69
2022/10/21 00:24:49;;;;;;;14.77;8.02;;;;;;;;;;4963339;28;20050;-69
2022/10/21 00:27:14;;;;;;;11.77;9.43;;;;;;;;;;4980476;28;20054;-69
2022/10/21 00:29:40;;;;;;;15.90;9.15;;;;;;;;;;4981300;28;20050;-69
2022/10/21 00:32:05;;;;;;;13.15;9.25;;;;;;;;;;4980904;28;20482;-69
2022/10/21 00:34:31;;;;;;;16.92;9.05;;;;;;;;;;4980035;28;20128;-69
2022/10/21 00:36:57;;;;;;;20.15;8.98;;;;;;;;;;4980413;28;20050;-69
2022/10/21 00:39:22;;;;;;;12.43;9.02;;;;;;;;;;4980624;28;20038;-69
2022/10/21 00:41:47;;;;;;;18.88;10.05;;;;;;;;;;4980839;28;20495;-69
2022/10/21 00:44:14;;;;;;;15.05;10.05;;;;;;;;;;4980297;28;20042;-69
2022/10/21 00:46:52;;;;;;;18.65;10.13;;;;;;;;;;4980922;28;20038;-69
2022/10/21 00:49:30;;;;;;;16.40;9.30;;;;;;;;;;4980383;28;20645;-69
2022/10/21 00:52:00;;;;;;;18.08;9.25;;;;;;;;;;4980883;28;20384;-69
2022/10/21 00:54:28;;;;;;;13.52;8.82;;;;;;;;;;4980875;28;20145;-69
2022/10/21 00:56:55;;;;;;;19.55;9.13;;;;;;;;;;4979011;28;20042;-70
2022/10/21 00:59:27;;;;;;;12.70;9.05;;;;;;;;;;4980647;28;20058;-69
2022/10/21 01:01:53;;;;;;;15.35;9.50;;;;;;;;;;4980749;28;20042;-69
2022/10/21 01:04:18;;;;;;;12.18;9.20;;;;;;;;;;4980728;28;20060;-70
2022/10/21 01:06:45;;;;;;;12.63;8.77;;;;;;;;;;4979723;28;20058;-69
2022/10/21 01:09:12;;;;;;;15.23;8.77;;;;;;;;;;4980290;28;20578;-69
2022/10/21 01:11:44;;;;;;;15.52;8.73;;;;;;;;;;4978844;28;20062;-69
2022/10/21 01:14:23;;;;;;;9.80;8.15;;;;;;;;;;4979012;28;20050;-69
2022/10/21 01:17:06;;;;;;;10.23;7.97;;;;;;;;;;4978917;28;20053;-69
2022/10/21 01:19:56;;;;;;;15.90;8.00;;;;;;;;;;4961591;28;21020;-70
2022/10/21 01:22:43;;;;;;;12.82;8.35;;;;;;;;;;4977957;28;20101;-70
2022/10/21 01:25:42;;;;;;;24.33;8.00;;;;;;;;;;4975120;28;20422;-69
2022/10/21 01:28:26;;;;;;;13.05;7.60;;;;;;;;;;4980343;28;20054;-69
2022/10/21 01:31:21;;;;;;;15.68;7.72;;;;;;;;;;4980686;28;20086;-70
2022/10/21 01:33:56;;;;;;;14.27;7.60;;;;;;;;;;4913039;28;20152;-68
2022/10/21 01:36:44;;;;;;;11.32;7.90;;;;;;;;;;4983810;28;20046;-69
2022/10/21 01:39:24;;;;;;;14.75;8.90;;;;;;;;;;4983508;28;20660;-69
2022/10/21 01:42:22;;;;;;;12.95;9.32;;;;;;;;;;4983810;28;20046;-68
2022/10/21 01:44:57;;;;;;;21.20;8.85;;;;;;;;;;4928995;28;20042;-70
2022/10/21 01:47:32;;;;;;;15.77;8.60;;;;;;;;;;4983449;28;20054;-70
2022/10/21 01:50:07;;;;;;;12.13;9.23;;;;;;;;;;4966384;28;20060;-69
2022/10/21 01:52:32;;;;;;;12.38;8.70;;;;;;;;;;4983514;28;20043;-70
2022/10/21 01:55:03;;;;;;;21.00;10.43;;;;;;;;;;4982742;28;20093;-70
2022/10/21 01:57:34;;;;;;;15.30;10.75;;;;;;;;;;4982824;28;20050;-69
2022/10/21 02:00:00;;;;;;;13.37;9.60;;;;;;;;;;4983813;28;20447;-69
2022/10/21 02:02:30;;;;;;;10.75;8.45;;;;;;;;;;4983364;28;20049;-70
2022/10/21 02:04:59;;;;;;;12.43;8.68;;;;;;;;;;4982589;28;20086;-69
2022/10/21 02:07:25;;;;;;;12.15;8.85;;;;;;;;;;4982748;28;20054;-71
2022/10/21 02:09:50;;;;;;;10.98;8.30;;;;;;;;;;4983449;28;20053;-70
2022/10/21 02:12:17;;;;;;;12.00;8.57;;;;;;;;;;4983165;28;20050;-70
2022/10/21 02:14:48;;;;;;;11.07;8.32;;;;;;;;;;4982882;28;20053;-69
2022/10/21 02:17:18;;;;;;;12.65;8.48;;;;;;;;;;4981756;28;20051;-70
2022/10/21 02:19:45;;;;;;;14.13;9.18;;;;;;;;;;4983011;28;20053;-70
2022/10/21 02:22:13;;;;;;;17.00;10.18;;;;;;;;;;4983392;28;20391;-69
2022/10/21 02:24:43;;;;;;;15.82;8.43;;;;;;;;;;4983104;28;20047;-70
2022/10/21 02:27:08;;;;;;;17.42;9.23;;;;;;;;;;4982510;28;20053;-68
2022/10/21 02:29:37;;;;;;;12.93;9.35;;;;;;;;;;4982046;28;20050;-69
2022/10/21 02:32:09;;;;;;;15.98;9.70;;;;;;;;;;4982685;28;20439;-69
2022/10/21 02:35:02;;;;;;;21.98;10.18;;;;;;;;;;4982727;28;20054;-69
2022/10/21 02:37:50;;;;;;;15.75;9.35;;;;;;;;;;4965013;28;20044;-69
2022/10/21 02:40:22;;;;;;;16.95;9.05;;;;;;;;;;4982065;28;20078;-69
2022/10/21 02:42:55;;;;;;;13.43;9.30;;;;;;;;;;4981249;28;20046;-68
2022/10/21 02:45:21;;;;;;;20.63;9.05;;;;;;;;;;4980574;28;20128;-68
2022/10/21 02:47:48;;;;;;;18.88;10.05;;;;;;;;;;4982821;28;20053;-68
2022/10/21 02:50:15;;;;;;;19.73;10.82;;;;;;;;;;4981898;28;20713;-68
2022/10/21 02:52:40;;;;;;;15.88;9.90;;;;;;;;;;4981950;28;20050;-67
2022/10/21 02:55:06;;;;;;;17.50;11.02;;;;;;;;;;4981693;28;20061;-70
2022/10/21 02:57:32;;;;;;;13.63;9.63;;;;;;;;;;4982300;28;20051;-68
2022/10/21 02:59:57;;;;;;;15.43;9.70;;;;;;;;;;4982383;28;20050;-69
2022/10/21 03:02:22;;;;;;;15.50;10.65;;;;;;;;;;4981289;28;20152;-68
2022/10/21 03:04:48;;;;;;;17.23;10.93;;;;;;;;;;4982384;28;20449;-68
2022/10/21 03:07:13;;;;;;;17.23;10.57;;;;;;;;;;4964149;28;20078;-69
2022/10/21 03:09:40;;;;;;;17.65;11.00;;;;;;;;;;4982140;28;20042;-69
2022/10/21 03:12:06;;;;;;;16.73;10.70;;;;;;;;;;4981788;28;20053;-70
2022/10/21 03:14:31;;;;;;;16.23;11.20;;;;;;;;;;4981815;28;20049;-67
2022/10/21 03:16:57;;;;;;;23.00;10.45;;;;;;;;;;4981122;28;20054;-69
2022/10/21 03:19:22;;;;;;;18.58;11.15;;;;;;;;;;4982065;28;20060;-68
2022/10/21 03:21:48;;;;;;;24.10;11.57;;;;;;;;;;4982018;28;20078;-70
2022/10/21 03:24:13;;;;;;;22.27;10.75;;;;;;;;;;4978853;28;20088;-69
2022/10/21 03:26:39;;;;;;;23.75;12.55;;;;;;;;;;4981052;28;20046;-70
2022/10/21 03:29:04;;;;;;;17.65;12.32;;;;;;;;;;4981302;28;20046;-70
2022/10/21 03:31:29;;;;;;;19.60;12.57;;;;;;;;;;4981364;28;20046;-70
2022/10/21 03:33:55;;;;;;;19.13;12.70;;;;;;;;;;4981742;28;20050;-69
2022/10/21 03:36:20;;;;;;;25.58;11.57;;;;;;;;;;4980539;28;20058;-70
2022/10/21 03:38:46;;;;;;;14.88;11.25;;;;;;;;;;4979778;28;20088;-69
2022/10/21 03:41:11;;;;;;;21.92;11.15;;;;;;;;;;4980008;28;20056;-71
2022/10/21 03:43:36;;;;;;;13.23;10.77;;;;;;;;;;4981327;28;20046;-70
2022/10/21 03:46:02;;;;;;;14.70;10.38;;;;;;;;;;4980720;28;20049;-70
2022/10/21 03:48:27;;;;;;;14.13;9.32;;;;;;;;;;4981304;28;20050;-67
2022/10/21 03:50:55;;;;;;;14.02;9.85;;;;;;;;;;4981546;28;20042;-70
2022/10/21 03:53:20;;;;;;;19.45;10.32;;;;;;;;;;4980839;28;20132;-70
2022/10/21 03:55:45;;;;;;;14.05;9.82;;;;;;;;;;4981016;28;20137;-70
2022/10/21 03:58:11;;;;;;;16.83;9.90;;;;;;;;;;4980554;28;20133;-70
2022/10/21 04:00:36;;;;;;;15.00;9.32;;;;;;;;;;4981125;28;20050;-69
2022/10/21 04:03:02;;;;;;;16.00;9.50;;;;;;;;;;4980623;28;20178;-69
2022/10/21 04:05:27;;;;;;;19.30;9.70;;;;;;;;;;4980890;28;20081;-69
2022/10/21 04:07:53;;;;;;;16.67;9.32;;;;;;;;;;4980254;28;20042;-69
2022/10/21 04:10:18;;;;;;;16.33;9.05;;;;;;;;;;4980485;28;20038;-70
2022/10/21 04:12:44;;;;;;;14.38;8.90;;;;;;;;;;4980959;28;20046;-69
2022/10/21 04:15:12;;;;;;;12.80;9.52;;;;;;;;;;4963144;28;20067;-69
2022/10/21 04:17:38;;;;;;;17.00;9.57;;;;;;;;;;4980782;28;20069;-69
2022/10/21 04:20:04;;;;;;;14.50;9.38;;;;;;;;;;4980578;28;20129;-70
2022/10/21 04:22:29;;;;;;;13.90;8.82;;;;;;;;;;4981002;28;20100;-70
2022/10/21 04:24:55;;;;;;;16.50;10.48;;;;;;;;;;4964431;28;20451;-71
2022/10/21 04:27:20;;;;;;;16.13;10.90;;;;;;;;;;4981466;28;20117;-69
2022/10/21 04:29:46;;;;;;;20.90;10.73;;;;;;;;;;4977972;28;20050;-69
2022/10/21 04:32:11;;;;;;;15.43;10.65;;;;;;;;;;4980417;28;20072;-69
2022/10/21 04:34:37;;;;;;;16.48;10.63;;;;;;;;;;4980458;28;20046;-69
2022/10/21 04:37:02;;;;;;;20.58;11.35;;;;;;;;;;4980009;28;20050;-69
2022/10/21 04:39:28;;;;;;;17.05;11.63;;;;;;;;;;4980194;28;20084;-69
2022/10/21 04:41:54;;;;;;;18.27;10.55;;;;;;;;;;4979542;28;20054;-69
2022/10/21 04:44:20;;;;;;;15.95;10.60;;;;;;;;;;4979450;28;20402;-69
2022/10/21 04:46:46;;;;;;;13.60;10.07;;;;;;;;;;4979098;28;20034;-69
2022/10/21 04:49:11;;;;;;;13.20;9.13;;;;;;;;;;4978782;28;20046;-69
2022/10/21 04:51:36;;;;;;;16.77;9.60;;;;;;;;;;4978305;28;20097;-69
2022/10/21 04:54:02;;;;;;;17.10;9.98;;;;;;;;;;4978412;28;20046;-68
2022/10/21 04:56:27;;;;;;;15.57;9.98;;;;;;;;;;4976951;28;20050;-68
2022/10/21 04:58:53;;;;;;;20.33;9.60;;;;;;;;;;4979325;28;20053;-68
2022/10/21 05:01:18;;;;;;;17.65;9.93;;;;;;;;;;4979447;28;20046;-68
2022/10/21 05:03:44;;;;;;;14.82;10.57;;;;;;;;;;4978151;28;20569;-68
2022/10/21 05:06:09;;;;;;;15.93;11.65;;;;;;;;;;4978943;28;20054;-68
2022/10/21 05:08:35;;;;;;;13.48;10.88;;;;;;;;;;4950652;28;20042;-68
2022/10/21 05:11:01;;;;;;;15.15;10.27;;;;;;;;;;4982027;28;20049;-68
2022/10/21 05:13:28;;;;;;;17.33;10.77;;;;;;;;;;4981770;28;20057;-68
2022/10/21 05:16:02;;;;;;;18.52;11.00;;;;;;;;;;4979316;28;20042;-68
2022/10/21 05:18:28;;;;;;;18.25;10.98;;;;;;;;;;4984106;28;20042;-67
2022/10/21 05:20:54;;;;;;;20.35;11.43;;;;;;;;;;4983193;28;20046;-67
2022/10/21 05:23:20;;;;;;;17.83;11.60;;;;;;;;;;4983171;28;21169;-68
2022/10/21 05:25:46;;;;;;;25.50;12.50;;;;;;;;;;4982653;28;20137;-68
2022/10/21 05:28:12;;;;;;;18.65;12.85;;;;;;;;;;4983240;28;20840;-68
2022/10/21 05:30:37;;;;;;;24.58;13.00;;;;;;;;;;4983393;28;20034;-67
2022/10/21 05:33:03;;;;;;;25.33;12.10;;;;;;;;;;4982322;28;20506;-68
2022/10/21 05:35:29;;;;;;;21.00;12.20;;;;;;;;;;4982693;28;20970;-68
2022/10/21 05:37:54;;;;;;;30.83;13.13;;;;;;;;;;4983413;28;20757;-68
2022/10/21 05:40:20;;;;;;;24.58;14.02;;;;;;;;;;4984138;28;20058;-67
2022/10/21 05:42:45;;;;;;;24.65;14.07;;;;;;;;;;4984458;28;20050;-67
2022/10/21 05:45:11;;;;;;;21.42;13.32;;;;;;;;;;4983365;28;20058;-67
2022/10/21 05:47:39;;;;;;;24.98;13.23;;;;;;;;;;4983118;28;20069;-68
2022/10/21 05:50:05;;;;;;;19.73;12.93;;;;;;;;;;4983643;28;20052;-67
2022/10/21 05:52:31;;;;;;;18.27;12.98;;;;;;;;;;4983166;28;20053;-67
2022/10/21 05:54:56;;;;;;;30.05;16.65;;;;;;;;;;4982433;28;20042;-68
2022/10/21 05:57:22;;;;;;;25.88;14.05;;;;;;;;;;4982422;28;20101;-68
2022/10/21 05:59:47;;;;;;;19.75;13.55;;;;;;;;;;4982980;28;20046;-67
2022/10/21 06:02:13;;;;;;;19.15;12.63;;;;;;;;;;4983419;28;20121;-67
2022/10/21 06:04:38;;;;;;;22.70;12.43;;;;;;;;;;4983104;28;20138;-67
2022/10/21 06:07:03;;;;;;;20.55;10.77;;;;;;;;;;4982477;28;20145;-67
2022/10/21 06:09:29;;;;;;;17.30;11.55;;;;;;;;;;4965180;28;20069;-67
2022/10/21 06:11:56;;;;;;;19.17;11.77;;;;;;;;;;4982751;28;20511;-67
2022/10/21 06:14:22;;;;;;;19.20;11.40;;;;;;;;;;4983456;28;20562;-68
2022/10/21 06:16:48;;;;;;;19.85;11.38;;;;;;;;;;4975674;28;20046;-68
2022/10/21 06:19:13;;;;;;;19.95;11.43;;;;;;;;;;4981078;28;20042;-67
2022/10/21 06:21:38;;;;;;;20.30;11.77;;;;;;;;;;4981980;28;20049;-67
2022/10/21 06:24:04;;;;;;;13.77;10.02;;;;;;;;;;4982783;28;20034;-67
2022/10/21 06:26:29;;;;;;;16.48;10.13;;;;;;;;;;4982121;28;20065;-68
2022/10/21 06:28:56;;;;;;;14.02;9.63;;;;;;;;;;4982247;28;20038;-68
2022/10/21 06:31:22;;;;;;;13.65;9.82;;;;;;;;;;4980376;28;20062;-68
2022/10/21 06:33:47;;;;;;;25.20;13.10;;;;;;;;;;4982843;28;20084;-69
2022/10/21 06:36:14;;;;;;;22.63;10.15;;;;;;;;;;4981748;28;20136;-69
2022/10/21 06:38:39;;;;;;;22.25;9.30;;;;;;;;;;4982029;28;20061;-68
2022/10/21 06:41:08;;;;;;;16.83;10.13;;;;;;;;;;4981705;28;20054;-68
2022/10/21 06:43:33;;;;;;;17.15;9.50;;;;;;;;;;4982203;28;20062;-66
2022/10/21 06:46:05;;;;;;;16.17;10.00;;;;;;;;;;4981186;28;20042;-67
2022/10/21 06:48:31;;;;;;;14.93;9.85;;;;;;;;;;4981814;28;20058;-67
2022/10/21 06:51:05;;;;;;;12.00;8.85;;;;;;;;;;4981597;28;20675;-69
2022/10/21 06:53:32;;;;;;;20.95;9.60;;;;;;;;;;4947691;28;20601;-68
2022/10/21 06:56:07;;;;;;;12.52;8.27;;;;;;;;;;4981507;28;20085;-68
2022/10/21 06:58:34;;;;;;;20.80;8.90;;;;;;;;;;4981802;28;20423;-68
2022/10/21 07:01:09;;;;;;;12.95;9.00;;;;;;;;;;4980911;28;20410;-68
2022/10/21 07:03:34;;;;;;;11.07;8.02;;;;;;;;;;4981620;28;21096;-69
2022/10/21 07:05:59;;;;;;;16.33;8.65;;;;;;;;;;4981603;28;20056;-68
2022/10/21 07:08:27;;;;;;;15.20;8.50;;;;;;;;;;4982046;28;20042;-67
2022/10/21 07:10:53;;;;;;;18.45;10.15;;;;;;;;;;4981506;28;20487;-68
2022/10/21 07:13:20;;;;;;;15.02;8.32;;;;;;;;;;4980717;28;20441;-68
2022/10/21 07:15:45;;;;;;;16.45;8.32;;;;;;;;;;4981289;28;20054;-67
2022/10/21 07:18:10;;;;;;;19.08;9.05;;;;;;;;;;4981662;28;20053;-67
2022/10/21 07:20:36;;;;;;;11.73;8.30;;;;;;;;;;4981553;28;20050;-68
2022/10/21 07:23:01;;;;;;;13.30;8.48;;;;;;;;;;4980938;28;20628;-68
2022/10/21 07:25:27;;;;;;;14.57;8.23;;;;;;;;;;4980394;28;20073;-68
2022/10/21 07:27:52;;;;;;;18.55;8.38;;;;;;;;;;4981842;28;20053;-67
2022/10/21 07:30:17;;;;;;;11.77;8.00;;;;;;;;;;4980907;28;20057;-67
2022/10/21 07:32:43;;;;;;;13.07;8.27;;;;;;;;;;4981254;28;20045;-68
2022/10/21 07:35:08;;;;;;;16.35;7.57;;;;;;;;;;4980432;28;20054;-67
2022/10/21 07:37:34;;;;;;;15.85;7.25;;;;;;;;;;4981061;28;20046;-67
2022/10/21 07:39:59;;;;;;;15.95;7.65;;;;;;;;;;4981691;28;20136;-68
2022/10/21 07:42:27;;;;;;;12.80;7.90;;;;;;;;;;4980674;28;21019;-69
2022/10/21 07:44:58;;;;;;;13.23;8.35;;;;;;;;;;4981253;28;20051;-67
2022/10/21 07:47:24;;;;;;;16.98;8.18;;;;;;;;;;4979850;28;20042;-68
2022/10/21 07:49:50;;;;;;;18.75;9.02;;;;;;;;;;4981892;28;20050;-67
2022/10/21 07:52:15;;;;;;;22.35;7.95;;;;;;;;;;4980717;28;20552;-67
2022/10/21 07:54:41;;;;;;;14.38;8.07;;;;;;;;;;4980892;28;20050;-69
2022/10/21 07:57:06;;;;;;;14.25;7.93;;;;;;;;;;4979729;28;20105;-67
2022/10/21 07:59:31;;;;;;;16.05;7.70;;;;;;;;;;4980790;28;20073;-67
2022/10/21 08:01:57;;;;;;;16.98;7.60;;;;;;;;;;4980583;28;20869;-65
2022/10/21 08:04:28;;;;;;;9.40;7.80;;;;;;;;;;4980662;28;20488;-66
2022/10/21 08:06:54;;;;;;;16.48;7.70;;;;;;;;;;4981134;28;20053;-66
2022/10/21 08:09:20;;;;;;;16.95;7.40;;;;;;;;;;4979384;28;20416;-69
2022/10/21 08:11:46;;;;;;;16.58;6.85;;;;;;;;;;4980734;28;20117;-64
2022/10/21 08:14:12;;;;;;;18.42;7.35;;;;;;;;;;4980685;28;20058;-65
2022/10/21 08:16:39;;;;;;;13.73;7.30;;;;;;;;;;4962917;28;20094;-66
2022/10/21 08:19:05;;;;;;;10.75;6.85;;;;;;;;;;4980148;28;20580;-65
2022/10/21 08:21:31;;;;;;;9.15;7.07;;;;;;;;;;4980171;28;20046;-66
2022/10/21 08:23:57;;;;;;;15.82;7.47;;;;;;;;;;4980798;28;20415;-66
2022/10/21 08:26:23;;;;;;;22.55;7.88;;;;;;;;;;4980219;28;20057;-66
2022/10/21 08:28:48;;;;;;;12.55;7.65;;;;;;;;;;4980696;28;20246;-66
2022/10/21 08:31:16;;;;;;;11.02;7.53;;;;;;;;;;4979394;28;20135;-65
2022/10/21 08:33:43;;;;;;;12.30;6.47;;;;;;;;;;4962991;28;20411;-66
2022/10/21 08:36:17;;;;;;;13.30;7.22;;;;;;;;;;4980400;28;20526;-67
2022/10/21 08:38:43;;;;;;;12.85;7.13;;;;;;;;;;4980783;28;20132;-65
2022/10/21 08:41:28;;;;;;;10.00;6.95;;;;;;;;;;4981626;28;20125;-66
2022/10/21 08:44:11;;;;;;;11.05;6.30;;;;;;;;;;4984519;28;20100;-66
2022/10/21 08:46:59;;;;;;;16.88;7.45;;;;;;;;;;4984099;28;20117;-65
2022/10/21 08:49:48;;;;;;;11.38;6.65;;;;;;;;;;4925011;28;20047;-66
2022/10/21 08:52:19;;;;;;;13.75;6.53;;;;;;;;;;4972898;28;20406;-66
2022/10/21 08:54:52;;;;;;;11.95;7.30;;;;;;;;;;4984098;28;20050;-69
2022/10/21 08:57:18;;;;;;;19.52;7.15;;;;;;;;;;4983386;28;20125;-68
2022/10/21 08:59:44;;;;;;;12.65;7.00;;;;;;;;;;4984364;28;20046;-67
2022/10/21 09:02:32;;;;;;;10.32;6.90;;;;;;;;;;4983960;28;20859;-69
2022/10/21 09:05:26;;;;;;;11.80;6.53;;;;;;;;;;4982731;28;20038;-73
2022/10/21 09:08:05;;;;;;;14.60;7.72;;;;;;;;;;4984267;28;20073;-67
2022/10/21 09:10:40;;;;;;;10.68;6.78;;;;;;;;;;4984034;28;20062;-67
2022/10/21 09:13:12;;;;;;;9.48;6.72;;;;;;;;;;4983714;28;20137;-68
2022/10/21 09:15:52;;;;;;;8.93;7.10;;;;;;;;;;4982927;28;20038;-67
2022/10/21 09:18:35;;;;;;;12.18;7.03;;;;;;;;;;4984037;28;20046;-67
2022/10/21 09:21:19;;;;;;;12.90;6.63;;;;;;;;;;4983360;28;20046;-66
2022/10/21 09:23:44;;;;;;;10.55;6.63;;;;;;;;;;4984027;28;20107;-66
2022/10/21 09:26:27;;;;;;;14.63;6.75;;;;;;;;;;4983352;28;20447;-66
2022/10/21 09:28:52;;;;;;;19.85;7.53;;;;;;;;;;4985862;28;20061;-67
2022/10/21 09:31:20;;;;;;;19.50;6.72;;;;;;;;;;4983331;28;20069;-67
2022/10/21 09:33:51;;;;;;;12.30;6.80;;;;;;;;;;4984339;28;20046;-68
2022/10/21 09:36:28;;;;;;;11.77;6.57;;;;;;;;;;4983156;28;20065;-68
2022/10/21 09:39:26;;;;;;;12.48;7.25;;;;;;;;;;4983897;28;20057;-68
2022/10/21 09:41:55;;;;;;;14.88;6.40;;;;;;;;;;4955438;28;20105;-68
2022/10/21 09:44:22;;;;;;;9.38;6.13;;;;;;;;;;4983481;28;20150;-67
2022/10/21 09:46:49;;;;;;;11.75;6.57;;;;;;;;;;4983027;28;20406;-66
2022/10/21 09:49:32;;;;;;;11.75;6.18;;;;;;;;;;4981712;28;20042;-68
2022/10/21 09:52:01;;;;;;;11.07;6.15;;;;;;;;;;4982547;28;20053;-68
2022/10/21 09:54:33;;;;;;;9.90;5.88;;;;;;;;;;4983384;28;20156;-69
2022/10/21 09:57:02;;;;;;;;;;;;;;;;;;4983076;28;20574;-68
2022/10/21 09:59:30;;;;;;;7.50;5.78;;;;;;;;;;4982482;28;19933;-67
2022/10/21 10:01:56;;;;;;;8.05;5.75;;;;;;;;;;4982652;28;20066;-68
2022/10/21 10:04:21;;;;;;;9.40;6.15;;;;;;;;;;4983087;28;20042;-69
2022/10/21 10:06:47;;;;;;;10.80;6.00;;;;;;;;;;4983143;28;20050;-68
2022/10/21 10:09:35;;;;;;;11.13;5.63;;;;;;;;;;4982155;28;20060;-69
2022/10/21 10:12:01;;;;;;;7.53;5.63;;;;;;;;;;4982952;28;20050;-69
2022/10/21 10:14:30;;;;;;;10.93;6.47;;;;;;;;;;4982993;28;20050;-68
2022/10/21 10:16:57;;;;;;;10.18;6.43;;;;;;;;;;4982500;28;20042;-67
2022/10/21 10:19:27;;;;;;;12.55;5.97;;;;;;;;;;4982786;28;20054;-68
2022/10/21 10:22:13;;;;;;;10.65;5.95;;;;;;;;;;4982050;28;20034;-69
2022/10/21 10:24:42;;;;;;;9.68;6.55;;;;;;;;;;4982572;28;20570;-69
2022/10/21 10:27:22;;;;;;;7.45;5.68;;;;;;;;;;4981689;28;20585;-69
2022/10/21 10:29:53;;;;;;;8.65;5.93;;;;;;;;;;4982488;28;20073;-69
2022/10/21 10:32:23;;;;;;;16.40;5.80;;;;;;;;;;4981779;28;20422;-68
2022/10/21 10:34:56;;;;;;;10.20;4.70;;;;;;;;;;4982047;28;20054;-69
2022/10/21 10:37:24;;;;;;;6.55;4.65;;;;;;;;;;4981902;28;20070;-69
2022/10/21 10:39:54;;;;;;;10.05;4.60;;;;;;;;;;4982778;28;20042;-68
2022/10/21 10:42:26;;;;;;;7.90;4.00;;;;;;;;;;4981604;28;20085;-69
2022/10/21 10:44:54;;;;;;;5.00;3.75;;;;;;;;;;4981789;28;20041;-69
2022/10/21 10:47:27;;;;;;;7.57;3.83;;;;;;;;;;4980765;28;20519;-70
2022/10/21 10:49:53;;;;;;;6.20;3.60;;;;;;;;;;4964178;28;20041;-69
2022/10/21 10:52:22;;;;;;;7.43;4.53;;;;;;;;;;4981489;28;20043;-69
2022/10/21 10:55:10;;;;;;;10.65;4.60;;;;;;;;;;4979155;28;20587;-68
2022/10/21 10:57:38;;;;;;;8.07;5.45;;;;;;;;;;4964377;28;20090;-68
2022/10/21 11:00:05;;;;;;;9.00;4.90;;;;;;;;;;4981321;28;20042;-68
2022/10/21 11:02:54;;;;;;;11.25;6.90;;;;;;;;;;4980887;28;20502;-68
2022/10/21 11:06:01;;;;;;;12.32;6.78;;;;;;;;;;4978068;28;20514;-68
2022/10/21 11:08:35;;;;;;;17.45;6.30;;;;;;;;;;4928510;29;20059;-67
2022/10/21 11:11:05;;;;;;;11.95;6.28;;;;;;;;;;4974291;28;20701;-68
2022/10/21 11:13:33;;;;;;;11.10;6.10;;;;;;;;;;4963186;28;20046;-69
2022/10/21 11:16:10;;;;;;;11.10;6.53;;;;;;;;;;4979414;28;20054;-69
2022/10/21 11:19:02;;;;;;;13.05;6.18;;;;;;;;;;4979790;28;20054;-69
2022/10/21 11:21:49;;;;;;;15.02;6.18;;;;;;;;;;4961110;28;20048;-68
2022/10/21 11:24:44;;;;;;;13.95;6.88;;;;;;;;;;4980299;28;20043;-70
2022/10/21 11:27:53;;;;;;;11.98;7.05;;;;;;;;;;5046154;27;20213;-68
2022/10/21 11:30:21;;;;;;;11.43;6.85;;;;;;;;;;4977443;28;20104;-68
2022/10/21 11:33:16;;;;;;;11.10;6.07;;;;;;;;;;4978088;28;20054;-68
2022/10/21 11:36:10;;;;;;;11.25;6.70;;;;;;;;;;5024420;28;20057;-67
2022/10/21 11:38:54;;;;;;;8.20;6.20;;;;;;;;;;4993745;28;20053;-69
2022/10/21 11:41:29;;;;;;;11.35;6.28;;;;;;;;;;5003599;28;20052;-67
2022/10/21 11:44:07;;;;;;;17.08;7.32;;;;;;;;;;4997089;28;20038;-69
2022/10/21 11:46:50;;;;;;;11.52;6.35;;;;;;;;;;4995087;28;20056;-67
2022/10/21 11:49:45;;;;;;;10.15;6.68;;;;;;;;;;4996695;28;20076;-69
2022/10/21 11:52:28;;;;;;;14.30;6.22;;;;;;;;;;4994713;28;20392;-69
2022/10/21 11:54:56;;;;;;;9.45;5.95;;;;;;;;;;5003785;28;20050;-68
2022/10/21 11:57:26;;;;;;;13.30;6.43;;;;;;;;;;4995569;28;20137;-67
2022/10/21 12:00:10;;;;;;;12.55;6.22;;;;;;;;;;4997300;28;20124;-67
2022/10/21 12:03:14;;;;;;;15.45;5.63;;;;;;;;;;5014165;28;20085;-68
2022/10/21 12:06:00;;;;;;;13.00;5.38;;;;;;;;;;5013050;28;20056;-69
2022/10/21 12:08:34;;;;;;;11.73;5.68;;;;;;;;;;4997281;28;20522;-70
2022/10/21 12:11:39;;;;;;;12.40;4.93;;;;;;;;;;4998873;28;20085;-68
2022/10/21 12:14:35;;;;;;;19.15;4.60;;;;;;;;;;4961990;28;20046;-70
2022/10/21 12:17:04;;;;;;;11.15;4.18;;;;;;;;;;5008454;28;20065;-69
2022/10/21 12:19:30;;;;;;;10.77;4.00;;;;;;;;;;5010781;28;20045;-69
2022/10/21 12:21:56;;;;;;;11.05;4.40;;;;;;;;;;5007094;28;20066;-70
2022/10/21 12:24:59;;;;;;;11.73;4.10;;;;;;;;;;5006029;28;20477;-70
2022/10/21 12:27:32;;;;;;;9.23;3.92;;;;;;;;;;5010923;28;20588;-71
2022/10/21 12:30:11;;;;;;;8.95;3.70;;;;;;;;;;5000675;28;20046;-70
2022/10/21 12:33:07;;;;;;;9.20;3.47;;;;;;;;;;5004151;28;20196;-70
2022/10/21 12:36:17;;;;;;;9.05;3.55;;;;;;;;;;5010013;28;20049;-68
2022/10/21 12:38:54;;;;;;;9.05;3.60;;;;;;;;;;4972465;28;20068;-70
2022/10/21 12:41:22;;;;;;;5.85;3.72;;;;;;;;;;4979517;28;20066;-70
2022/10/21 12:43:59;;;;;;;8.43;3.20;;;;;;;;;;4983809;28;20050;-68
2022/10/21 12:46:38;;;;;;;11.57;3.63;;;;;;;;;;4995515;28;20085;-70
2022/10/21 12:49:18;;;;;;;7.30;3.47;;;;;;;;;;4990747;28;20053;-69
2022/10/21 12:51:51;;;;;;;11.02;2.80;;;;;;;;;;4983054;28;20039;-69
2022/10/21 12:54:21;;;;;;;8.63;3.03;;;;;;;;;;4995208;28;20681;-69
2022/10/21 12:56:57;;;;;;;7.47;2.05;;;;;;;;;;4993385;28;20092;-69
2022/10/21 12:59:37;;;;;;;8.23;2.92;;;;;;;;;;5002157;28;20052;-70
2022/10/21 13:02:09;;;;;;;5.47;2.55;;;;;;;;;;4999556;28;20049;-70
2022/10/21 13:04:34;;;;;;;9.88;2.33;;;;;;;;;;4993800;28;20045;-69
2022/10/21 13:07:15;;;;;;;11.45;2.42;;;;;;;;;;4994171;28;20052;-69
2022/10/21 13:09:55;;;;;;;6.03;2.50;;;;;;;;;;5003525;28;20054;-68
2022/10/21 13:12:23;;;;;;;5.10;1.90;;;;;;;;;;4985418;28;20046;-68
2022/10/21 13:15:01;;;;;;;3.80;1.63;;;;;;;;;;4984311;28;20046;-68
2022/10/21 13:17:30;;;;;;;3.38;1.95;;;;;;;;;;4986372;28;20050;-70
2022/10/21 13:20:14;;;;;;;6.25;1.70;;;;;;;;;;4983055;28;20042;-70
2022/10/21 13:22:42;;;;;;;6.93;1.58;;;;;;;;;;4998097;28;20038;-72
2022/10/21 13:25:27;;;;;;;6.40;2.13;;;;;;;;;;4983095;28;20133;-70
2022/10/21 13:28:04;;;;;;;3.15;1.77;;;;;;;;;;4980832;28;20054;-69
2022/10/21 13:30:33;;;;;;;4.90;1.73;;;;;;;;;;4981170;28;20046;-69
2022/10/21 13:33:02;;;;;;;3.05;1.63;;;;;;;;;;4983310;28;20053;-70
2022/10/21 13:35:40;;;;;;;6.82;1.45;;;;;;;;;;4982555;28;20140;-69
2022/10/21 13:38:19;;;;;;;6.65;1.80;;;;;;;;;;4985650;28;20407;-69
2022/10/21 13:40:51;;;;;;;3.78;1.55;;;;;;;;;;4986993;28;20081;-69
2022/10/21 13:43:27;;;;;;;6.50;2.20;;;;;;;;;;4983125;28;20046;-69
2022/10/21 13:46:02;;;;;;;3.53;1.63;;;;;;;;;;4983971;28;20042;-70
2022/10/21 13:48:27;;;;;;;2.60;1.63;;;;;;;;;;4982531;28;20089;-70
2022/10/21 13:50:53;;;;;;;2.38;1.70;;;;;;;;;;4982169;28;20164;-70
2022/10/21 13:53:25;;;;;;;4.93;1.65;;;;;;;;;;4990874;28;20054;-70
2022/10/21 13:55:59;;;;;;;7.32;1.95;;;;;;;;;;4993384;28;20499;-69
2022/10/21 13:58:26;;;;;;;4.53;1.73;;;;;;;;;;4975657;28;21164;-69
2022/10/21 14:00:52;;;;;;;5.68;2.13;;;;;;;;;;4982357;28;20060;-69
2022/10/21 14:03:20;;;;;;;6.85;1.55;;;;;;;;;;4990242;28;20054;-69
2022/10/21 14:05:49;;;;;;;3.75;1.77;;;;;;;;;;4997888;28;20061;-69
2022/10/21 14:08:25;;;;;;;10.80;2.33;;;;;;;;;;4999122;28;20053;-69
2022/10/21 14:10:52;;;;;;;4.50;1.80;;;;;;;;;;4997398;28;20057;-68
2022/10/21 14:13:23;;;;;;;5.63;1.90;;;;;;;;;;4991184;28;20073;-68
2022/10/21 14:15:50;;;;;;;9.07;1.77;;;;;;;;;;4993772;28;20069;-69
2022/10/21 14:18:46;;;;;;;5.10;2.03;;;;;;;;;;4980714;28;20526;-68
2022/10/21 14:21:19;;;;;;;5.30;1.90;;;;;;;;;;4979812;28;20084;-69
2022/10/21 14:23:45;;;;;;;9.25;1.75;;;;;;;;;;4982661;28;20065;-69
2022/10/21 14:26:11;;;;;;;6.38;2.08;;;;;;;;;;4980010;28;20050;-68
2022/10/21 14:28:37;;;;;;;3.67;2.10;;;;;;;;;;4985482;28;20050;-68
2022/10/21 14:31:10;;;;;;;6.68;1.73;;;;;;;;;;4981130;28;20058;-70
2022/10/21 14:33:38;;;;;;;3.45;1.80;;;;;;;;;;4987659;28;20510;-70
2022/10/21 14:36:11;;;;;;;4.10;1.88;;;;;;;;;;4981546;28;20471;-69
2022/10/21 14:39:02;;;;;;;4.40;1.30;;;;;;;;;;4983044;28;20042;-70
2022/10/21 14:41:34;;;;;;;5.35;1.90;;;;;;;;;;4981220;28;20135;-69
2022/10/21 14:44:16;;;;;;;2.15;1.42;;;;;;;;;;4985753;28;20082;-68
2022/10/21 14:46:47;;;;;;;2.88;1.10;;;;;;;;;;4980368;28;20073;-69
2022/10/21 14:49:28;;;;;;;2.55;1.15;;;;;;;;;;4986828;28;20057;-69
2022/10/21 14:52:21;;;;;;;4.40;1.17;;;;;;;;;;4981468;28;20514;-69
2022/10/21 14:54:59;;;;;;;2.80;1.00;;;;;;;;;;4977233;28;20045;-69